createdAt,value
2023-05-20T00:00:52.483Z, 37.82
2023-05-20T00:01:52.468Z, 37.78
2023-05-20T00:02:52.498Z, 37.78
2023-05-20T00:03:52.847Z, 37.77
2023-05-20T00:04:52.666Z, 37.75
2023-05-20T00:05:52.490Z, 37.70
2023-05-20T00:06:52.500Z, 37.73
2023-05-20T00:07:52.501Z, 37.72
2023-05-20T00:08:52.619Z, 37.73
2023-05-20T00:09:52.600Z, 37.72
2023-05-20T00:10:52.606Z, 37.69
2023-05-20T00:11:52.612Z, 37.65
2023-05-20T00:12:52.603Z, 37.62
2023-05-20T00:13:52.627Z, 37.63
2023-05-20T00:14:54.563Z, 37.60
2023-05-20T00:15:52.693Z, 37.61
2023-05-20T00:16:52.801Z, 37.59
2023-05-20T00:17:52.727Z, 37.58
2023-05-20T00:18:52.721Z, 37.57
2023-05-20T00:19:52.696Z, 37.57
2023-05-20T00:20:52.696Z, 37.56
2023-05-20T00:21:52.707Z, 37.51
2023-05-20T00:22:52.712Z, 37.47
2023-05-20T00:23:52.708Z, 37.48
2023-05-20T00:24:52.701Z, 37.49
2023-05-20T00:25:52.702Z, 37.50
2023-05-20T00:26:52.698Z, 37.49
2023-05-20T00:27:52.707Z, 37.43
2023-05-20T00:28:52.709Z, 37.38
2023-05-20T00:29:52.885Z, 37.37
2023-05-20T00:30:52.878Z, 37.36
2023-05-20T00:31:53.013Z, 37.38
2023-05-20T00:32:52.947Z, 37.38
2023-05-20T00:33:52.878Z, 37.33
2023-05-20T00:34:52.876Z, 37.33
2023-05-20T00:35:52.909Z, 37.28
2023-05-20T00:36:52.883Z, 37.28
2023-05-20T00:37:52.918Z, 37.33
2023-05-20T00:38:53.046Z, 37.29
2023-05-20T00:39:53.040Z, 37.28
2023-05-20T00:40:53.055Z, 37.26
2023-05-20T00:41:53.065Z, 37.25
2023-05-20T00:42:53.058Z, 37.25
2023-05-20T00:43:53.059Z, 37.25
2023-05-20T00:44:53.058Z, 37.21
2023-05-20T00:45:53.068Z, 37.20
2023-05-20T00:46:53.069Z, 37.19
2023-05-20T00:47:53.095Z, 37.20
2023-05-20T00:48:53.065Z, 37.15
2023-05-20T00:49:53.234Z, 37.11
2023-05-20T00:50:53.101Z, 37.10
2023-05-20T00:51:53.084Z, 37.12
2023-05-20T00:52:53.083Z, 37.13
2023-05-20T00:53:53.082Z, 37.15
2023-05-20T00:54:53.237Z, 37.16
2023-05-20T00:55:53.237Z, 37.14
2023-05-20T00:56:53.247Z, 37.09
2023-05-20T00:57:53.254Z, 37.09
2023-05-20T00:58:53.235Z, 37.06
2023-05-20T00:59:53.257Z, 37.06
2023-05-20T01:00:53.246Z, 37.05
2023-05-20T01:01:53.313Z, 37.03
2023-05-20T01:02:53.403Z, 37.02
2023-05-20T01:03:53.472Z, 37.05
2023-05-20T01:04:53.246Z, 37.04
2023-05-20T01:05:53.398Z, 37.02
2023-05-20T01:06:53.415Z, 37.00
2023-05-20T01:07:53.435Z, 37.00
2023-05-20T01:08:53.416Z, 36.97
2023-05-20T01:09:53.414Z, 36.96
2023-05-20T01:10:53.425Z, 36.94
2023-05-20T01:11:53.417Z, 36.96
2023-05-20T01:12:53.408Z, 36.95
2023-05-20T01:13:53.419Z, 36.98
2023-05-20T01:14:53.419Z, 36.97
2023-05-20T01:15:53.451Z, 36.97
2023-05-20T01:16:53.439Z, 36.92
2023-05-20T01:17:53.441Z, 36.90
2023-05-20T01:18:53.456Z, 36.88
2023-05-20T01:19:53.420Z, 36.88
2023-05-20T01:20:53.590Z, 36.82
2023-05-20T01:21:53.456Z, 36.81
2023-05-20T01:22:53.593Z, 36.79
2023-05-20T01:23:53.593Z, 36.78
2023-05-20T01:24:53.643Z, 36.80
2023-05-20T01:25:53.585Z, 36.81
2023-05-20T01:26:53.594Z, 36.81
2023-05-20T01:27:53.623Z, 36.78
2023-05-20T01:28:53.594Z, 36.77
2023-05-20T01:29:53.596Z, 36.79
2023-05-20T01:30:53.641Z, 36.76
2023-05-20T01:31:53.695Z, 36.75
2023-05-20T01:32:53.660Z, 36.72
2023-05-20T01:33:53.769Z, 36.72
2023-05-20T01:34:53.625Z, 36.69
2023-05-20T01:35:53.627Z, 36.69
2023-05-20T01:36:53.630Z, 36.69
2023-05-20T01:37:53.640Z, 36.68
2023-05-20T01:38:53.770Z, 36.64
2023-05-20T01:39:53.646Z, 36.60
2023-05-20T01:40:53.778Z, 36.65
2023-05-20T01:41:53.780Z, 36.63
2023-05-20T01:42:53.801Z, 36.61
2023-05-20T01:43:53.775Z, 36.64
2023-05-20T01:44:53.804Z, 36.60
2023-05-20T01:45:53.801Z, 36.58
2023-05-20T01:46:53.807Z, 36.57
2023-05-20T01:47:53.818Z, 36.53
2023-05-20T01:48:53.788Z, 36.53
2023-05-20T01:49:53.961Z, 36.53
2023-05-20T01:50:53.958Z, 36.57
2023-05-20T01:51:53.962Z, 36.55
2023-05-20T01:52:53.996Z, 36.51
2023-05-20T01:53:53.959Z, 36.55
2023-05-20T01:54:53.964Z, 36.55
2023-05-20T01:55:53.964Z, 36.55
2023-05-20T01:56:53.969Z, 36.53
2023-05-20T01:57:53.960Z, 36.48
2023-05-20T01:58:53.965Z, 36.47
2023-05-20T01:59:53.959Z, 36.49
2023-05-20T02:00:54.031Z, 36.45
2023-05-20T02:01:54.019Z, 36.42
2023-05-20T02:02:54.013Z, 36.41
2023-05-20T02:03:53.972Z, 36.40
2023-05-20T02:04:53.971Z, 36.38
2023-05-20T02:05:54.037Z, 36.38
2023-05-20T02:06:53.982Z, 36.39
2023-05-20T02:07:54.149Z, 36.37
2023-05-20T02:08:54.144Z, 36.29
2023-05-20T02:09:54.163Z, 36.24
2023-05-20T02:10:54.147Z, 36.25
2023-05-20T02:11:54.166Z, 36.27
2023-05-20T02:12:54.142Z, 36.29
2023-05-20T02:13:54.143Z, 36.25
2023-05-20T02:14:54.162Z, 36.23
2023-05-20T02:15:54.153Z, 36.23
2023-05-20T02:16:54.266Z, 36.20
2023-05-20T02:17:54.202Z, 36.24
2023-05-20T02:18:54.342Z, 36.27
2023-05-20T02:19:54.343Z, 36.27
2023-05-20T02:20:54.191Z, 36.29
2023-05-20T02:21:54.328Z, 36.31
2023-05-20T02:22:54.190Z, 36.26
2023-05-20T02:23:54.326Z, 36.23
2023-05-20T02:24:54.328Z, 36.24
2023-05-20T02:25:54.326Z, 36.23
2023-05-20T02:26:54.329Z, 36.21
2023-05-20T02:27:54.334Z, 36.23
2023-05-20T02:28:54.338Z, 36.20
2023-05-20T02:29:54.336Z, 36.18
2023-05-20T02:30:54.328Z, 36.18
2023-05-20T02:31:54.343Z, 36.17
2023-05-20T02:32:54.359Z, 36.17
2023-05-20T02:33:54.558Z, 36.13
2023-05-20T02:34:54.382Z, 36.09
2023-05-20T02:35:54.384Z, 36.09
2023-05-20T02:36:54.376Z, 36.11
2023-05-20T02:37:54.372Z, 36.07
2023-05-20T02:38:54.525Z, 36.08
2023-05-20T02:39:54.509Z, 36.07
2023-05-20T02:40:54.512Z, 36.06
2023-05-20T02:41:54.528Z, 36.05
2023-05-20T02:42:54.512Z, 36.03
2023-05-20T02:43:54.511Z, 36.05
2023-05-20T02:44:54.517Z, 36.05
2023-05-20T02:45:54.553Z, 36.02
2023-05-20T02:46:54.543Z, 35.98
2023-05-20T02:47:54.537Z, 35.96
2023-05-20T02:48:54.543Z, 35.99
2023-05-20T02:49:54.550Z, 35.95
2023-05-20T02:50:54.517Z, 35.96
2023-05-20T02:51:54.690Z, 35.95
2023-05-20T02:52:54.696Z, 35.96
2023-05-20T02:53:54.696Z, 35.92
2023-05-20T02:54:54.703Z, 35.90
2023-05-20T02:55:54.698Z, 35.88
2023-05-20T02:56:54.696Z, 35.85
2023-05-20T02:57:54.692Z, 35.89
2023-05-20T02:58:54.697Z, 35.87
2023-05-20T02:59:54.704Z, 35.85
2023-05-20T03:00:54.710Z, 35.86
2023-05-20T03:01:54.830Z, 35.89
2023-05-20T03:02:54.723Z, 35.81
2023-05-20T03:03:54.893Z, 35.80
2023-05-20T03:04:54.944Z, 35.78
2023-05-20T03:05:54.732Z, 35.76
2023-05-20T03:06:54.726Z, 35.75
2023-05-20T03:07:54.751Z, 35.77
2023-05-20T03:08:54.868Z, 35.77
2023-05-20T03:09:54.876Z, 35.77
2023-05-20T03:10:54.868Z, 35.77
2023-05-20T03:11:54.895Z, 35.75
2023-05-20T03:12:54.867Z, 35.78
2023-05-20T03:13:54.882Z, 35.76
2023-05-20T03:14:54.874Z, 35.76
2023-05-20T03:15:55.060Z, 35.71
2023-05-20T03:16:54.874Z, 35.67
2023-05-20T03:17:54.952Z, 35.67
2023-05-20T03:18:54.923Z, 35.72
2023-05-20T03:19:54.879Z, 35.68
2023-05-20T03:20:54.897Z, 35.70
2023-05-20T03:21:55.051Z, 35.70
2023-05-20T03:22:55.057Z, 35.67
2023-05-20T03:23:55.044Z, 35.64
2023-05-20T03:24:55.055Z, 35.63
2023-05-20T03:25:55.051Z, 35.66
2023-05-20T03:26:55.058Z, 35.64
2023-05-20T03:27:55.062Z, 35.65
2023-05-20T03:28:55.061Z, 35.61
2023-05-20T03:29:55.055Z, 35.61
2023-05-20T03:30:55.118Z, 35.65
2023-05-20T03:31:55.097Z, 36.49
2023-05-20T03:32:55.094Z, 37.83
2023-05-20T03:33:55.051Z, 39.78
2023-05-20T03:34:55.056Z, 40.97
2023-05-20T03:35:55.054Z, 41.80
2023-05-20T03:36:55.235Z, 42.54
2023-05-20T03:37:55.231Z, 43.13
2023-05-20T03:38:55.225Z, 43.61
2023-05-20T03:39:55.226Z, 43.94
2023-05-20T03:40:55.224Z, 44.25
2023-05-20T03:41:55.230Z, 44.55
2023-05-20T03:42:55.232Z, 44.87
2023-05-20T03:43:55.238Z, 45.19
2023-05-20T03:44:55.242Z, 45.48
2023-05-20T03:45:55.235Z, 45.77
2023-05-20T03:46:55.309Z, 45.95
2023-05-20T03:47:55.260Z, 46.15
2023-05-20T03:48:55.236Z, 46.33
2023-05-20T03:49:55.244Z, 46.48
2023-05-20T03:50:55.409Z, 46.69
2023-05-20T03:51:55.259Z, 46.82
2023-05-20T03:52:55.419Z, 46.96
2023-05-20T03:53:55.413Z, 47.09
2023-05-20T03:54:55.425Z, 47.17
2023-05-20T03:55:55.421Z, 47.29
2023-05-20T03:56:55.427Z, 47.39
2023-05-20T03:57:55.422Z, 47.41
2023-05-20T03:58:55.422Z, 47.49
2023-05-20T03:59:55.430Z, 47.50
2023-05-20T04:00:55.433Z, 47.50
2023-05-20T04:01:55.436Z, 47.51
2023-05-20T04:02:55.534Z, 47.63
2023-05-20T04:03:55.510Z, 47.89
2023-05-20T04:04:55.520Z, 48.09
2023-05-20T04:05:55.496Z, 48.03
2023-05-20T04:06:55.476Z, 47.89
2023-05-20T04:07:55.487Z, 47.61
2023-05-20T04:08:55.503Z, 47.38
2023-05-20T04:09:55.490Z, 47.14
2023-05-20T04:10:55.483Z, 46.97
2023-05-20T04:11:55.499Z, 46.78
2023-05-20T04:12:55.484Z, 46.63
2023-05-20T04:13:55.480Z, 46.51
2023-05-20T04:14:55.485Z, 46.41
2023-05-20T04:15:55.496Z, 46.35
2023-05-20T04:16:55.509Z, 46.26
2023-05-20T04:17:55.526Z, 46.18
2023-05-20T04:18:55.585Z, 46.16
2023-05-20T04:19:55.505Z, 46.07
2023-05-20T04:20:55.512Z, 46.00
2023-05-20T04:21:55.531Z, 45.98
2023-05-20T04:22:55.590Z, 45.84
2023-05-20T04:23:55.573Z, 45.79
2023-05-20T04:24:55.572Z, 45.80
2023-05-20T04:25:55.622Z, 45.73
2023-05-20T04:26:55.593Z, 45.67
2023-05-20T04:27:55.662Z, 45.67
2023-05-20T04:28:55.649Z, 45.60
2023-05-20T04:29:55.646Z, 45.61
2023-05-20T04:30:55.709Z, 45.56
2023-05-20T04:31:55.800Z, 45.57
2023-05-20T04:32:55.793Z, 45.47
2023-05-20T04:33:55.694Z, 45.49
2023-05-20T04:34:55.741Z, 45.48
2023-05-20T04:35:55.705Z, 45.47
2023-05-20T04:36:55.716Z, 45.37
2023-05-20T04:37:55.867Z, 45.28
2023-05-20T04:38:55.803Z, 45.26
2023-05-20T04:39:55.805Z, 45.28
2023-05-20T04:40:55.817Z, 45.31
2023-05-20T04:41:56.041Z, 45.28
2023-05-20T04:42:55.841Z, 45.26
2023-05-20T04:43:55.812Z, 45.25
2023-05-20T04:44:55.802Z, 45.20
2023-05-20T04:45:55.852Z, 45.16
2023-05-20T04:46:55.837Z, 45.19
2023-05-20T04:47:55.903Z, 45.19
2023-05-20T04:48:55.904Z, 45.17
2023-05-20T04:49:55.874Z, 45.16
2023-05-20T04:50:55.937Z, 45.05
2023-05-20T04:51:55.938Z, 45.04
2023-05-20T04:52:55.968Z, 45.05
2023-05-20T04:53:55.949Z, 45.00
2023-05-20T04:54:55.959Z, 44.97
2023-05-20T04:55:55.948Z, 44.99
2023-05-20T04:56:56.094Z, 44.98
2023-05-20T04:57:55.965Z, 44.93
2023-05-20T04:58:55.969Z, 44.88
2023-05-20T04:59:55.985Z, 44.85
2023-05-20T05:00:55.990Z, 44.81
2023-05-20T05:01:56.209Z, 44.84
2023-05-20T05:02:56.116Z, 44.75
2023-05-20T05:03:56.103Z, 44.77
2023-05-20T05:04:56.214Z, 44.74
2023-05-20T05:05:56.077Z, 44.75
2023-05-20T05:06:56.085Z, 44.70
2023-05-20T05:07:56.082Z, 44.71
2023-05-20T05:08:56.164Z, 44.74
2023-05-20T05:09:56.133Z, 44.62
2023-05-20T05:10:56.230Z, 44.56
2023-05-20T05:11:56.164Z, 44.57
2023-05-20T05:12:56.168Z, 44.49
2023-05-20T05:13:56.217Z, 44.49
2023-05-20T05:14:56.178Z, 44.52
2023-05-20T05:15:56.264Z, 44.48
2023-05-20T05:16:56.192Z, 44.45
2023-05-20T05:17:56.234Z, 45.31
2023-05-20T05:18:56.248Z, 45.84
2023-05-20T05:19:56.297Z, 45.77
2023-05-20T05:20:56.268Z, 45.57
2023-05-20T05:21:56.327Z, 45.38
2023-05-20T05:22:56.316Z, 45.17
2023-05-20T05:23:58.347Z, 45.05
2023-05-20T05:24:56.350Z, 44.95
2023-05-20T05:25:56.314Z, 44.84
2023-05-20T05:26:56.317Z, 44.77
2023-05-20T05:27:56.333Z, 44.65
2023-05-20T05:28:56.376Z, 44.58
2023-05-20T05:29:56.362Z, 44.50
2023-05-20T05:30:56.434Z, 44.33
2023-05-20T05:31:56.435Z, 44.25
2023-05-20T05:32:56.657Z, 44.22
2023-05-20T05:33:56.449Z, 44.19
2023-05-20T05:34:56.437Z, 44.11
2023-05-20T05:35:56.475Z, 44.06
2023-05-20T05:36:56.464Z, 43.98
2023-05-20T05:37:56.493Z, 43.94
2023-05-20T05:38:56.483Z, 43.90
2023-05-20T05:39:56.477Z, 43.88
2023-05-20T05:40:56.490Z, 43.89
2023-05-20T05:41:56.496Z, 43.85
2023-05-20T05:42:56.587Z, 43.82
2023-05-20T05:43:56.558Z, 43.80
2023-05-20T05:44:56.611Z, 43.77
2023-05-20T05:45:56.587Z, 43.74
2023-05-20T05:46:56.629Z, 43.66
2023-05-20T05:47:56.653Z, 43.66
2023-05-20T05:48:56.623Z, 43.68
2023-05-20T05:49:56.613Z, 43.62
2023-05-20T05:50:56.652Z, 43.60
2023-05-20T05:51:56.629Z, 43.56
2023-05-20T05:52:56.631Z, 43.56
2023-05-20T05:53:56.636Z, 43.57
2023-05-20T05:54:56.642Z, 43.55
2023-05-20T05:55:56.720Z, 43.44
2023-05-20T05:56:56.687Z, 43.40
2023-05-20T05:57:56.806Z, 43.41
2023-05-20T05:58:56.790Z, 43.32
2023-05-20T05:59:56.787Z, 43.31
2023-05-20T06:00:56.791Z, 43.30
2023-05-20T06:01:56.797Z, 43.34
2023-05-20T06:02:56.892Z, 43.30
2023-05-20T06:03:56.886Z, 43.22
2023-05-20T06:04:56.832Z, 43.16
2023-05-20T06:05:56.828Z, 43.15
2023-05-20T06:06:56.858Z, 43.16
2023-05-20T06:07:56.859Z, 43.11
2023-05-20T06:08:56.859Z, 43.08
2023-05-20T06:09:56.869Z, 43.10
2023-05-20T06:10:56.852Z, 43.06
2023-05-20T06:11:56.950Z, 43.04
2023-05-20T06:12:56.931Z, 43.02
2023-05-20T06:13:56.962Z, 43.01
2023-05-20T06:14:56.934Z, 42.95
2023-05-20T06:15:57.644Z, 42.89
2023-05-20T06:16:57.005Z, 42.84
2023-05-20T06:17:56.990Z, 42.84
2023-05-20T06:18:57.027Z, 42.85
2023-05-20T06:19:56.963Z, 42.80
2023-05-20T06:20:57.018Z, 42.76
2023-05-20T06:21:56.997Z, 42.79
2023-05-20T06:22:57.036Z, 42.82
2023-05-20T06:23:57.030Z, 42.78
2023-05-20T06:24:57.060Z, 42.70
2023-05-20T06:25:57.050Z, 42.62
2023-05-20T06:26:57.050Z, 42.66
2023-05-20T06:27:57.103Z, 42.67
2023-05-20T06:28:57.086Z, 42.58
2023-05-20T06:29:57.150Z, 42.52
2023-05-20T06:30:57.165Z, 42.50
2023-05-20T06:31:57.116Z, 42.49
2023-05-20T06:32:57.203Z, 42.46
2023-05-20T06:33:57.147Z, 42.48
2023-05-20T06:34:57.150Z, 42.50
2023-05-20T06:35:57.163Z, 42.42
2023-05-20T06:36:57.231Z, 42.34
2023-05-20T06:37:57.248Z, 42.29
2023-05-20T06:38:57.268Z, 42.34
2023-05-20T06:39:57.256Z, 42.34
2023-05-20T06:40:57.233Z, 42.27
2023-05-20T06:41:57.258Z, 42.21
2023-05-20T06:42:57.236Z, 42.24
2023-05-20T06:43:57.304Z, 42.20
2023-05-20T06:44:57.282Z, 42.16
2023-05-20T06:45:57.363Z, 42.12
2023-05-20T06:46:57.302Z, 42.14
2023-05-20T06:47:57.302Z, 42.10
2023-05-20T06:48:57.318Z, 42.05
2023-05-20T06:49:57.322Z, 42.00
2023-05-20T06:50:57.413Z, 42.03
2023-05-20T06:51:57.388Z, 42.03
2023-05-20T06:52:57.445Z, 41.98
2023-05-20T06:53:57.426Z, 41.96
2023-05-20T06:54:57.448Z, 41.92
2023-05-20T06:55:57.429Z, 41.92
2023-05-20T06:56:57.438Z, 41.84
2023-05-20T06:57:57.427Z, 41.87
2023-05-20T06:58:57.482Z, 41.89
2023-05-20T06:59:57.472Z, 41.77
2023-05-20T07:00:57.477Z, 41.78
2023-05-20T07:01:57.558Z, 41.81
2023-05-20T07:02:57.518Z, 41.74
2023-05-20T07:03:57.564Z, 41.71
2023-05-20T07:04:57.525Z, 41.65
2023-05-20T07:05:57.514Z, 41.68
2023-05-20T07:06:57.537Z, 41.60
2023-05-20T07:07:57.616Z, 41.58
2023-05-20T07:08:57.600Z, 41.60
2023-05-20T07:09:57.669Z, 41.61
2023-05-20T07:10:57.623Z, 41.53
2023-05-20T07:11:57.615Z, 41.50
2023-05-20T07:12:57.618Z, 41.52
2023-05-20T07:13:57.632Z, 41.47
2023-05-20T07:14:57.658Z, 41.46
2023-05-20T07:15:57.735Z, 41.46
2023-05-20T07:16:57.663Z, 41.49
2023-05-20T07:17:57.740Z, 41.43
2023-05-20T07:18:57.777Z, 41.39
2023-05-20T07:19:57.713Z, 41.37
2023-05-20T07:20:57.787Z, 41.34
2023-05-20T07:21:57.797Z, 41.34
2023-05-20T07:22:57.810Z, 41.30
2023-05-20T07:23:57.782Z, 41.28
2023-05-20T07:24:57.838Z, 41.21
2023-05-20T07:25:57.821Z, 41.23
2023-05-20T07:26:57.811Z, 41.19
2023-05-20T07:27:57.835Z, 41.12
2023-05-20T07:28:57.810Z, 41.12
2023-05-20T07:29:57.829Z, 41.14
2023-05-20T07:30:57.832Z, 41.13
2023-05-20T07:31:57.914Z, 41.12
2023-05-20T07:32:57.934Z, 41.08
2023-05-20T07:33:57.897Z, 41.06
2023-05-20T07:34:57.895Z, 41.08
2023-05-20T07:35:57.938Z, 41.05
2023-05-20T07:36:57.915Z, 40.99
2023-05-20T07:37:57.921Z, 40.92
2023-05-20T07:39:03.566Z, 40.96
2023-05-20T07:39:57.937Z, 40.93
2023-05-20T07:40:58.020Z, 40.91
2023-05-20T07:41:57.999Z, 40.89
2023-05-20T07:42:58.012Z, 40.90
2023-05-20T07:43:57.998Z, 40.87
2023-05-20T07:44:58.012Z, 40.85
2023-05-20T07:45:58.142Z, 40.77
2023-05-20T07:46:58.051Z, 40.79
2023-05-20T07:47:58.223Z, 40.80
2023-05-20T07:48:58.108Z, 40.80
2023-05-20T07:49:58.137Z, 40.74
2023-05-20T07:50:58.133Z, 40.72
2023-05-20T07:51:58.130Z, 40.74
2023-05-20T07:52:58.125Z, 40.75
2023-05-20T07:53:58.121Z, 40.72
2023-05-20T07:54:58.196Z, 40.68
2023-05-20T07:55:58.165Z, 40.64
2023-05-20T07:56:58.169Z, 40.63
2023-05-20T07:57:58.164Z, 40.63
2023-05-20T07:58:58.175Z, 40.56
2023-05-20T07:59:58.218Z, 40.53
2023-05-20T08:00:58.422Z, 40.54
2023-05-20T08:01:58.303Z, 40.46
2023-05-20T08:02:58.412Z, 40.47
2023-05-20T08:03:58.376Z, 40.41
2023-05-20T08:04:58.254Z, 40.41
2023-05-20T08:05:58.305Z, 40.39
2023-05-20T08:06:58.267Z, 40.41
2023-05-20T08:07:58.279Z, 40.42
2023-05-20T08:08:58.371Z, 40.39
2023-05-20T08:09:58.409Z, 40.39
2023-05-20T08:10:58.422Z, 40.43
2023-05-20T08:11:58.406Z, 40.41
2023-05-20T08:12:58.377Z, 40.37
2023-05-20T08:13:58.391Z, 40.30
2023-05-20T08:14:58.398Z, 40.32
2023-05-20T08:15:58.526Z, 40.31
2023-05-20T08:16:58.497Z, 40.30
2023-05-20T08:17:58.535Z, 40.28
2023-05-20T08:18:58.561Z, 40.23
2023-05-20T08:19:58.512Z, 40.15
2023-05-20T08:20:58.500Z, 40.13
2023-05-20T08:21:58.548Z, 40.08
2023-05-20T08:22:58.510Z, 40.10
2023-05-20T08:23:58.535Z, 40.09
2023-05-20T08:24:58.534Z, 40.11
2023-05-20T08:25:58.576Z, 40.05
2023-05-20T08:26:58.540Z, 40.08
2023-05-20T08:27:58.653Z, 40.08
2023-05-20T08:28:58.572Z, 40.08
2023-05-20T08:30:00.644Z, 39.99
2023-05-20T08:30:58.618Z, 39.97
2023-05-20T08:31:58.582Z, 39.93
2023-05-20T08:32:58.644Z, 39.89
2023-05-20T08:33:58.610Z, 39.90
2023-05-20T08:34:58.687Z, 39.91
2023-05-20T08:35:58.676Z, 39.90
2023-05-20T08:36:58.657Z, 39.87
2023-05-20T08:37:58.678Z, 39.90
2023-05-20T08:38:58.675Z, 39.84
2023-05-20T08:39:58.744Z, 39.83
2023-05-20T08:40:58.723Z, 39.84
2023-05-20T08:41:58.766Z, 39.79
2023-05-20T08:42:58.766Z, 39.80
2023-05-20T08:43:58.818Z, 39.80
2023-05-20T08:44:58.789Z, 39.82
2023-05-20T08:45:58.819Z, 39.79
2023-05-20T08:46:58.815Z, 39.75
2023-05-20T08:47:58.815Z, 39.71
2023-05-20T08:48:58.792Z, 39.70
2023-05-20T08:49:58.791Z, 39.69
2023-05-20T08:50:58.883Z, 39.66
2023-05-20T08:51:58.846Z, 39.65
2023-05-20T08:52:58.881Z, 39.65
2023-05-20T08:53:58.863Z, 39.67
2023-05-20T08:54:58.856Z, 39.64
2023-05-20T08:56:01.236Z, 39.62
2023-05-20T08:56:58.875Z, 39.59
2023-05-20T08:57:58.960Z, 39.56
2023-05-20T08:58:58.938Z, 39.54
2023-05-20T08:59:58.970Z, 39.58
2023-05-20T09:00:59.058Z, 39.56
2023-05-20T09:01:58.982Z, 39.53
2023-05-20T09:03:00.832Z, 39.47
2023-05-20T09:03:58.982Z, 39.44
2023-05-20T09:04:59.105Z, 39.43
2023-05-20T09:05:59.033Z, 39.44
2023-05-20T09:06:59.052Z, 39.40
2023-05-20T09:07:59.076Z, 39.39
2023-05-20T09:08:59.059Z, 39.37
2023-05-20T09:09:59.095Z, 39.28
2023-05-20T09:10:59.090Z, 39.29
2023-05-20T09:11:59.124Z, 39.25
2023-05-20T09:12:59.091Z, 39.25
2023-05-20T09:13:59.104Z, 39.25
2023-05-20T09:14:59.117Z, 39.29
2023-05-20T09:15:59.136Z, 39.31
2023-05-20T09:16:59.192Z, 39.26
2023-05-20T09:17:59.192Z, 39.19
2023-05-20T09:18:59.163Z, 39.22
2023-05-20T09:19:59.175Z, 39.21
2023-05-20T09:20:59.151Z, 39.19
2023-05-20T09:21:59.233Z, 39.17
2023-05-20T09:22:59.202Z, 39.10
2023-05-20T09:23:59.274Z, 39.10
2023-05-20T09:24:59.260Z, 39.10
2023-05-20T09:25:59.240Z, 39.07
2023-05-20T09:26:59.296Z, 39.03
2023-05-20T09:27:59.267Z, 38.99
2023-05-20T09:28:59.354Z, 38.97
2023-05-20T09:29:59.287Z, 38.99
2023-05-20T09:30:59.353Z, 38.95
2023-05-20T09:31:59.389Z, 38.95
2023-05-20T09:32:59.455Z, 38.94
2023-05-20T09:33:59.367Z, 38.92
2023-05-20T09:34:59.357Z, 38.92
2023-05-20T09:35:59.352Z, 38.93
2023-05-20T09:36:59.366Z, 38.95
2023-05-20T09:37:59.375Z, 38.92
2023-05-20T09:38:59.395Z, 38.88
2023-05-20T09:39:59.468Z, 38.87
2023-05-20T09:40:59.450Z, 38.87
2023-05-20T09:41:59.995Z, 38.88
2023-05-20T09:42:59.462Z, 38.93
2023-05-20T09:43:59.460Z, 38.88
2023-05-20T09:44:59.459Z, 38.85
2023-05-20T09:45:59.558Z, 38.78
2023-05-20T09:46:59.482Z, 38.76
2023-05-20T09:47:59.509Z, 38.75
2023-05-20T09:48:59.554Z, 38.73
2023-05-20T09:49:59.542Z, 38.71
2023-05-20T09:50:59.561Z, 38.70
2023-05-20T09:51:59.553Z, 38.72
2023-05-20T09:52:59.553Z, 38.69
2023-05-20T09:53:59.560Z, 38.69
2023-05-20T09:54:59.580Z, 38.67
2023-05-20T09:55:59.637Z, 38.64
2023-05-20T09:56:59.629Z, 38.64
2023-05-20T09:57:59.624Z, 38.57
2023-05-20T09:58:59.635Z, 38.54
2023-05-20T09:59:59.627Z, 38.52
2023-05-20T10:00:59.673Z, 38.52
2023-05-20T10:01:59.697Z, 39.29
2023-05-20T10:02:59.875Z, 39.90
2023-05-20T10:03:59.723Z, 40.76
2023-05-20T10:04:59.727Z, 41.57
2023-05-20T10:05:59.708Z, 42.08
2023-05-20T10:06:59.720Z, 42.45
2023-05-20T10:07:59.790Z, 42.83
2023-05-20T10:08:59.765Z, 43.10
2023-05-20T10:09:59.827Z, 43.13
2023-05-20T10:10:59.804Z, 43.13
2023-05-20T10:11:59.817Z, 43.18
2023-05-20T10:12:59.802Z, 43.26
2023-05-20T10:13:59.815Z, 43.41
2023-05-20T10:14:59.826Z, 43.55
2023-05-20T10:15:59.913Z, 43.65
2023-05-20T10:16:59.905Z, 43.75
2023-05-20T10:17:59.922Z, 43.88
2023-05-20T10:19:00.047Z, 43.98
2023-05-20T10:19:59.936Z, 44.08
2023-05-20T10:20:59.924Z, 44.17
2023-05-20T10:21:59.924Z, 44.23
2023-05-20T10:23:00.001Z, 44.26
2023-05-20T10:24:02.212Z, 44.33
2023-05-20T10:24:59.977Z, 44.39
2023-05-20T10:25:59.993Z, 44.47
2023-05-20T10:26:59.975Z, 44.51
2023-05-20T10:27:59.972Z, 44.52
2023-05-20T10:28:59.975Z, 44.57
2023-05-20T10:29:59.993Z, 44.60
2023-05-20T10:31:00.068Z, 44.60
2023-05-20T10:32:00.128Z, 44.44
2023-05-20T10:33:00.100Z, 44.19
2023-05-20T10:34:00.073Z, 43.96
2023-05-20T10:35:00.133Z, 43.74
2023-05-20T10:36:00.257Z, 43.58
2023-05-20T10:37:00.124Z, 43.53
2023-05-20T10:38:00.132Z, 43.46
2023-05-20T10:39:00.203Z, 43.37
2023-05-20T10:40:00.208Z, 43.24
2023-05-20T10:41:00.236Z, 43.12
2023-05-20T10:42:00.264Z, 43.04
2023-05-20T10:43:00.199Z, 42.97
2023-05-20T10:44:00.211Z, 42.90
2023-05-20T10:45:00.199Z, 42.84
2023-05-20T10:46:00.993Z, 42.82
2023-05-20T10:48:00.503Z, 42.70
2023-05-20T10:49:00.434Z, 42.65
2023-05-20T10:50:00.260Z, 42.58
2023-05-20T10:51:00.277Z, 42.57
2023-05-20T10:52:00.300Z, 42.51
2023-05-20T10:53:00.287Z, 42.49
2023-05-20T10:54:00.287Z, 42.47
2023-05-20T10:55:00.386Z, 42.39
2023-05-20T10:56:00.348Z, 42.39
2023-05-20T10:57:00.431Z, 42.36
2023-05-20T10:58:00.391Z, 42.36
2023-05-20T10:59:00.444Z, 42.35
2023-05-20T11:00:00.416Z, 42.28
2023-05-20T11:01:00.453Z, 42.22
2023-05-20T11:02:00.458Z, 42.23
2023-05-20T11:03:00.581Z, 42.22
2023-05-20T11:04:00.545Z, 42.20
2023-05-20T11:05:00.458Z, 42.18
2023-05-20T11:06:00.465Z, 42.13
2023-05-20T11:07:00.476Z, 42.10
2023-05-20T11:08:00.562Z, 42.12
2023-05-20T11:09:00.539Z, 42.13
2023-05-20T11:10:00.576Z, 42.12
2023-05-20T11:11:00.568Z, 42.07
2023-05-20T11:12:00.669Z, 42.04
2023-05-20T11:13:00.619Z, 42.03
2023-05-20T11:14:00.656Z, 42.02
2023-05-20T11:15:00.606Z, 41.95
2023-05-20T11:16:00.599Z, 41.93
2023-05-20T11:17:00.884Z, 41.89
2023-05-20T11:18:00.626Z, 41.90
2023-05-20T11:19:00.655Z, 41.88
2023-05-20T11:20:00.699Z, 41.86
2023-05-20T11:21:00.703Z, 41.89
2023-05-20T11:22:00.725Z, 41.85
2023-05-20T11:23:00.684Z, 41.84
2023-05-20T11:24:00.753Z, 41.80
2023-05-20T11:25:00.726Z, 41.82
2023-05-20T11:26:00.782Z, 41.81
2023-05-20T11:27:00.756Z, 41.72
2023-05-20T11:28:00.764Z, 41.70
2023-05-20T11:29:01.549Z, 41.70
2023-05-20T11:30:00.772Z, 41.65
2023-05-20T11:31:00.842Z, 41.59
2023-05-20T11:32:00.843Z, 41.55
2023-05-20T11:33:00.921Z, 41.54
2023-05-20T11:34:00.833Z, 41.56
2023-05-20T11:35:00.847Z, 41.51
2023-05-20T11:36:00.921Z, 41.43
2023-05-20T11:37:00.898Z, 41.41
2023-05-20T11:38:00.894Z, 41.46
2023-05-20T11:39:00.958Z, 41.42
2023-05-20T11:40:00.903Z, 41.42
2023-05-20T11:41:00.890Z, 41.42
2023-05-20T11:42:00.928Z, 41.44
2023-05-20T11:43:00.911Z, 41.43
2023-05-20T11:44:01.041Z, 41.40
2023-05-20T11:45:01.428Z, 41.35
2023-05-20T11:46:00.988Z, 41.33
2023-05-20T11:47:01.050Z, 41.32
2023-05-20T11:48:01.038Z, 41.24
2023-05-20T11:49:01.050Z, 41.23
2023-05-20T11:50:01.028Z, 41.25
2023-05-20T11:51:02.353Z, 41.24
2023-05-20T11:52:01.027Z, 41.17
2023-05-20T11:53:01.052Z, 41.10
2023-05-20T11:54:01.044Z, 41.13
2023-05-20T11:55:01.042Z, 41.17
2023-05-20T11:56:01.123Z, 41.12
2023-05-20T11:57:01.094Z, 41.13
2023-05-20T11:58:01.171Z, 41.09
2023-05-20T11:59:01.162Z, 41.06
2023-05-20T12:00:01.177Z, 40.99
2023-05-20T12:01:13.468Z, 41.00
2023-05-20T12:02:01.168Z, 41.01
2023-05-20T12:03:01.244Z, 41.01
2023-05-20T12:04:01.432Z, 41.04
2023-05-20T12:05:01.235Z, 40.95
2023-05-20T12:06:01.247Z, 40.92
2023-05-20T12:07:01.241Z, 40.90
2023-05-20T12:08:01.294Z, 40.82
2023-05-20T12:09:01.252Z, 40.76
2023-05-20T12:10:01.244Z, 40.71
2023-05-20T12:11:01.244Z, 40.66
2023-05-20T12:12:01.261Z, 40.70
2023-05-20T12:13:01.271Z, 40.68
2023-05-20T12:14:01.284Z, 40.62
2023-05-20T12:15:01.311Z, 40.64
2023-05-20T12:16:01.343Z, 40.64
2023-05-20T12:17:01.421Z, 40.60
2023-05-20T12:18:01.488Z, 40.60
2023-05-20T12:19:01.397Z, 40.63
2023-05-20T12:20:01.377Z, 40.58
2023-05-20T12:21:01.419Z, 40.55
2023-05-20T12:22:01.403Z, 40.51
2023-05-20T12:23:01.405Z, 40.54
2023-05-20T12:24:01.477Z, 40.50
2023-05-20T12:25:01.464Z, 40.44
2023-05-20T12:26:01.498Z, 40.44
2023-05-20T12:27:01.485Z, 40.39
2023-05-20T12:28:01.529Z, 40.43
2023-05-20T12:29:01.530Z, 40.38
2023-05-20T12:30:01.523Z, 40.41